Terminal Aerodrome Forecast
Issued by NWS Melbourne, FL

Home | Current Version | Previous Version | Text Only | Print | Product List | Glossary On
Versions: 1 2 3 4 5 6 7 8 9 10 11 12
000
FTUS42 KMLB 291130
TAFVRB
TAF
KVRB 291130Z 2912/3012 07004KT P6SM VCSH BKN035
     FM291500 07011KT P6SM BKN035
     FM291800 07013G19KT P6SM SCT040
     FM300100 08007KT P6SM SCT035
     FM300600 07004KT P6SM VCSH SCT030=

USA.gov is the U.S. government's official web portal to all federal, state and local government web resources and services.